Londonderry, NH (03053)

11:35 AM EDT on August 31, 2015 (GMT -0400)
Coleman - E7458 | | Change Station
CLOSE
Current Station
Personal Weather Station
Location: Londonderry, NH
Elevation: 289 ft
Nearby Weather Stations

Elev 289 ft 42.85 °N, 71.41 °W | Updated 12 seconds ago

Clear
Clear
82.6 °F
Feels Like 85 °F
N
2.2
Wind Variable Wind from West
Gusts 3.2 mph

Today
High -- | Low -- °F
--% Chance of Precip.
Yesterday
High -- | Low -- °F
Precip. -- in
6:08 AM 7:22 PM
Waning Gibbous, 95% visible
Pressure 29.98 in
Visibility 10.0 miles
Clouds Few 4500 ft
Few 25000 ft
Heat Index 85 °F
Dew Point 66 °F
Humidity 58%
Rainfall 0.00 in
Snow Depth Not available.
UV 7 out of 12
Pollen 8.50 out of 12
Air Quality Not available.
Flu Activity Not available.
METAR KMHT 311453Z 28008KT 10SM FEW045 FEW250 28/17 A2995 RMK AO2 SLP150 T02780167 58004
Pressure 29.98 in
Visibility 10.0 miles
Clouds Few 4500 ft
Few 25000 ft
Heat Index 85 °F
Dew Point 66 °F
Humidity 58%
Rainfall 0.00 in
Snow Depth Not available.
UV 7 out of 12
Pollen 8.50 out of 12
Air Quality Not available.
Flu Activity Not available.
METAR KMHT 311453Z 28008KT 10SM FEW045 FEW250 28/17 A2995 RMK AO2 SLP150 T02780167 58004

10-Day Weather Forecast

×

Almanac

Astronomy

Aug. 31, 2015 Rise Set
Actual Time
Civil Twilight
Nautical Twilight
Astronomical Twilight
Moon
Length of Visible Light
Length of Day
Tomorrow will be .
, % of the Moon is Illuminated

Today's Extremes

State Highs State Lows

Community

WunderPhotos

Upload Photos

1,851,282 photos uploaded!

WunderBlogs® & News

Nearby

Air Quality

  Air Quality AQ Index Pollutant
Not available.

Snow Depth

Station Depth Elevation

Earthquake Activity

City Distance Mag. Time & Date
Minimum magnitude displayed is 2.5.

Coastal Water Temperatures

Place Temperature

Stations

Nearby Weather Stations

Station Location Temp. Windchill Dew Point Humidity Wind Precip. Elev Updated Type